createdAt,value
2018-12-25T00:00:16.914Z,91.48
2018-12-25T00:05:21.163Z,91.44
2018-12-25T00:10:25.502Z,90.96
2018-12-25T00:15:29.838Z,91.40
2018-12-25T00:20:34.208Z,90.28
2018-12-25T00:25:38.507Z,90.96
2018-12-25T00:30:42.933Z,90.87
2018-12-25T00:35:47.265Z,90.54
2018-12-25T00:40:51.620Z,90.56
2018-12-25T00:45:55.936Z,91.46
2018-12-25T00:51:00.172Z,91.70
2018-12-25T00:56:04.507Z,91.37
2018-12-25T01:01:09.194Z,90.58
2018-12-25T01:06:13.429Z,91.35
2018-12-25T01:11:17.919Z,90.92
2018-12-25T01:16:22.246Z,89.81
2018-12-25T01:21:26.774Z,90.74
2018-12-25T01:26:31.118Z,90.87
2018-12-25T01:31:35.450Z,90.11
2018-12-25T01:36:39.801Z,90.64
2018-12-25T01:41:44.036Z,90.14
2018-12-25T01:46:48.351Z,90.70
2018-12-25T01:51:52.900Z,90.20
2018-12-25T01:56:57.216Z,90.67
2018-12-25T02:02:02.164Z,90.33
2018-12-25T02:07:06.706Z,90.44
2018-12-25T02:12:11.040Z,91.05
2018-12-25T02:17:15.916Z,90.68
2018-12-25T02:22:20.529Z,91.27
2018-12-25T02:27:24.873Z,90.52
2018-12-25T02:32:29.093Z,90.58
2018-12-25T02:37:33.422Z,90.60
2018-12-25T02:42:37.997Z,90.67
2018-12-25T02:47:42.352Z,90.36
2018-12-25T02:52:46.617Z,90.82
2018-12-25T02:57:51.026Z,90.91
2018-12-25T03:02:55.380Z,91.09
2018-12-25T03:07:59.610Z,91.09
2018-12-25T03:13:03.922Z,90.53
2018-12-25T03:18:08.449Z,90.07
2018-12-25T03:23:12.970Z,89.85
2018-12-25T03:28:17.193Z,90.42
2018-12-25T03:33:21.863Z,90.70
2018-12-25T03:38:26.253Z,91.33
2018-12-25T03:43:30.598Z,90.39
2018-12-25T03:48:34.812Z,90.16
2018-12-25T03:53:39.331Z,90.39
2018-12-25T03:58:43.850Z,90.19
2018-12-25T04:03:48.123Z,90.97
2018-12-25T04:08:52.353Z,91.20
2018-12-25T04:13:56.682Z,90.61
2018-12-25T04:19:01.273Z,89.89
2018-12-25T04:24:05.699Z,89.70
2018-12-25T04:29:10.172Z,88.46
2018-12-25T04:34:14.403Z,89.02
2018-12-25T04:39:18.869Z,89.81
2018-12-25T04:44:23.093Z,89.25
2018-12-25T04:49:27.532Z,88.15
2018-12-25T04:54:31.777Z,88.33
2018-12-25T04:59:36.312Z,87.72
2018-12-25T05:04:40.609Z,87.61
2018-12-25T05:09:44.837Z,88.14
2018-12-25T05:14:49.613Z,88.32
2018-12-25T05:19:54.048Z,88.53
2018-12-25T05:24:58.618Z,88.33
2018-12-25T05:30:03.129Z,88.14
2018-12-25T05:35:07.813Z,88.35
2018-12-25T05:40:12.051Z,87.93
2018-12-25T05:45:16.329Z,88.52
2018-12-25T05:50:20.561Z,88.11
2018-12-25T05:55:24.866Z,87.98
2018-12-25T06:00:29.228Z,88.42
2018-12-25T06:05:33.690Z,88.44
2018-12-25T06:10:37.923Z,88.75
2018-12-25T06:15:42.145Z,89.47
2018-12-25T06:20:54.955Z,87.96
2018-12-25T06:25:52.464Z,87.80
2018-12-25T06:30:57.123Z,88.04
2018-12-25T06:36:01.354Z,86.78
2018-12-25T06:41:05.581Z,87.76
2018-12-25T06:46:09.894Z,87.22
2018-12-25T06:51:14.222Z,86.71
2018-12-25T06:56:18.454Z,86.94
2018-12-25T07:01:22.682Z,86.82
2018-12-25T07:06:27.308Z,86.68
2018-12-25T07:11:31.520Z,86.65
2018-12-25T07:16:35.749Z,86.81
2018-12-25T07:21:40.012Z,87.44
2018-12-25T07:26:44.283Z,86.52
2018-12-25T07:31:48.581Z,86.28
2018-12-25T07:36:52.885Z,86.78
2018-12-25T07:41:57.237Z,86.37
2018-12-25T07:47:01.582Z,85.74
2018-12-25T07:52:06.152Z,83.39
2018-12-25T07:57:10.372Z,83.46
2018-12-25T08:02:14.941Z,84.08
2018-12-25T08:07:19.422Z,83.50
2018-12-25T08:12:24.326Z,85.02
2018-12-25T08:17:28.679Z,85.63
2018-12-25T08:22:32.925Z,84.80
2018-12-25T08:27:37.303Z,85.32
2018-12-25T08:32:41.611Z,84.90
2018-12-25T08:37:46.207Z,84.34
2018-12-25T08:42:50.463Z,84.84
2018-12-25T08:47:54.817Z,85.14
2018-12-25T08:52:59.153Z,85.40
2018-12-25T08:58:04.357Z,85.07
2018-12-25T09:03:08.979Z,85.68
2018-12-25T09:08:13.291Z,84.95
2018-12-25T09:13:17.664Z,85.16
2018-12-25T09:18:22.361Z,85.27
2018-12-25T09:23:26.718Z,84.58
2018-12-25T09:28:31.123Z,84.76
2018-12-25T09:33:36.176Z,84.26
2018-12-25T09:38:40.515Z,83.63
2018-12-25T09:43:44.866Z,83.00
2018-12-25T09:48:49.291Z,82.63
2018-12-25T09:53:53.933Z,82.63
2018-12-25T09:58:58.261Z,81.58
2018-12-25T10:04:02.572Z,81.84
2018-12-25T10:09:08.858Z,81.38
2018-12-25T10:14:13.591Z,80.71
2018-12-25T10:19:17.926Z,78.40
2018-12-25T10:24:22.400Z,79.94
2018-12-25T10:29:26.864Z,78.98
2018-12-25T10:34:32.758Z,78.15
2018-12-25T10:39:37.827Z,79.28
2018-12-25T10:44:42.619Z,77.66
2018-12-25T10:49:47.197Z,76.16
2018-12-25T10:54:51.557Z,74.49
2018-12-25T10:59:55.936Z,71.56
2018-12-25T11:05:01.779Z,70.38
2018-12-25T11:10:07.418Z,68.97
2018-12-25T11:15:11.759Z,68.23
2018-12-25T11:20:16.387Z,66.79
2018-12-25T11:25:20.877Z,65.56
2018-12-25T11:30:25.386Z,64.60
2018-12-25T11:35:29.702Z,64.41
2018-12-25T11:40:34.134Z,63.33
2018-12-25T11:45:38.487Z,63.55
2018-12-25T11:50:42.826Z,63.00
2018-12-25T11:55:47.159Z,62.16
2018-12-25T12:00:51.501Z,60.93
2018-12-25T12:05:55.904Z,59.96
2018-12-25T12:11:00.161Z,59.92
2018-12-25T12:16:04.799Z,60.97
2018-12-25T12:21:09.126Z,61.47
2018-12-25T12:26:13.503Z,62.37
2018-12-25T12:31:17.806Z,62.83
2018-12-25T12:36:22.314Z,63.01
2018-12-25T12:41:27.537Z,62.90
2018-12-25T12:46:31.822Z,63.76
2018-12-25T12:57:07.142Z,65.55
2018-12-25T13:02:30.593Z,66.77
2018-12-25T13:07:53.920Z,67.99
2018-12-25T13:13:17.347Z,67.84
2018-12-25T13:18:22.046Z,68.03
2018-12-25T13:23:26.863Z,69.65
2018-12-25T13:28:31.249Z,69.55
2018-12-25T13:33:35.735Z,70.50
2018-12-25T13:38:39.975Z,70.47
2018-12-25T13:43:44.501Z,71.52
2018-12-25T13:49:07.849Z,71.33
2018-12-25T13:54:12.205Z,71.70
2018-12-25T13:59:16.582Z,72.13
2018-12-25T14:04:21.952Z,73.32
2018-12-25T14:09:26.898Z,72.05
2018-12-25T14:14:31.158Z,73.07
2018-12-25T14:19:35.991Z,73.92
2018-12-25T14:24:40.299Z,73.63
2018-12-25T14:29:44.817Z,73.95
2018-12-25T14:34:49.200Z,74.44
2018-12-25T14:39:53.611Z,75.29
2018-12-25T14:44:58.365Z,74.61
2018-12-25T14:50:02.657Z,75.21
2018-12-25T14:55:26.055Z,75.03
2018-12-25T15:00:30.391Z,74.98
2018-12-25T15:05:35.474Z,76.05
2018-12-25T15:10:39.736Z,75.40
2018-12-25T15:15:44.356Z,75.92
2018-12-25T15:21:08.586Z,75.80
2018-12-25T15:26:32.021Z,75.63
2018-12-25T15:31:36.614Z,76.33
2018-12-25T15:36:41.178Z,76.68
2018-12-25T15:41:45.565Z,76.42
2018-12-25T15:46:50.591Z,76.85
2018-12-25T15:51:54.990Z,77.03
2018-12-25T15:57:01.095Z,78.40
2018-12-25T16:02:27.120Z,77.29
2018-12-25T16:07:50.468Z,77.60
2018-12-25T16:13:13.807Z,77.42
2018-12-25T16:18:18.056Z,77.68
2018-12-25T16:23:22.390Z,77.62
2018-12-25T16:28:26.895Z,77.76
2018-12-25T16:33:31.661Z,77.49
2018-12-25T16:38:36.037Z,78.47
2018-12-25T16:43:40.703Z,77.34
2018-12-25T16:49:04.745Z,77.22
2018-12-25T16:54:09.413Z,78.40
2018-12-25T16:59:32.731Z,78.42
2018-12-25T17:04:37.462Z,77.26
2018-12-25T17:09:42.091Z,77.81
2018-12-25T17:14:46.682Z,78.03
2018-12-25T17:19:51.645Z,78.24
2018-12-25T17:24:56.153Z,78.39
2018-12-25T17:30:19.777Z,78.33
2018-12-25T17:35:43.094Z,79.02
2018-12-25T17:40:47.680Z,78.87
2018-12-25T17:45:51.938Z,78.82
2018-12-25T17:50:56.355Z,78.13
2018-12-25T17:56:02.893Z,78.55
2018-12-25T18:01:07.226Z,79.36
2018-12-25T18:06:11.955Z,80.40
2018-12-25T18:11:16.237Z,80.00
2018-12-25T18:16:20.740Z,79.77
2018-12-25T18:21:25.120Z,79.24
2018-12-25T18:26:29.701Z,78.77
2018-12-25T18:31:33.969Z,78.99
2018-12-25T18:36:38.392Z,79.75
2018-12-25T18:41:42.910Z,79.71
2018-12-25T18:46:47.337Z,80.92
2018-12-25T18:52:10.681Z,80.73
2018-12-25T18:57:14.945Z,80.68
2018-12-25T19:02:19.374Z,80.65
2018-12-25T19:07:23.632Z,80.47
2018-12-25T19:12:29.225Z,80.19
2018-12-25T19:17:33.491Z,79.95
2018-12-25T19:22:37.951Z,80.73
2018-12-25T19:27:42.261Z,78.46
2018-12-25T19:32:46.535Z,77.88
2018-12-25T19:37:51.948Z,77.34
2018-12-25T19:42:56.336Z,77.16
2018-12-25T19:48:00.600Z,78.10
2018-12-25T19:53:04.850Z,78.44
2018-12-25T19:58:10.223Z,79.64
2018-12-25T20:03:18.937Z,80.25
2018-12-25T20:09:01.641Z,81.18
2018-12-25T20:14:47.499Z,82.19
2018-12-25T20:20:29.993Z,82.98
2018-12-25T20:26:06.917Z,83.57
2018-12-25T20:31:49.595Z,84.12
2018-12-25T20:37:49.539Z,84.22
2018-12-25T20:43:34.853Z,84.87
2018-12-25T20:49:20.353Z,84.89
2018-12-25T20:55:03.171Z,85.48
2018-12-25T21:00:33.979Z,85.21
2018-12-25T21:06:16.410Z,85.63
2018-12-25T21:11:58.851Z,86.05
2018-12-25T21:17:41.172Z,86.42
2018-12-25T21:23:23.468Z,87.00
2018-12-25T21:28:47.062Z,86.85
2018-12-25T21:33:51.485Z,86.98
2018-12-25T21:38:56.437Z,86.92
2018-12-25T21:44:21.760Z,87.58
2018-12-25T21:55:00.157Z,86.99
2018-12-25T22:05:16.956Z,88.00
2018-12-25T22:10:40.367Z,88.42
2018-12-25T22:16:03.727Z,88.15
2018-12-25T22:21:08.187Z,88.16
2018-12-25T22:26:12.864Z,88.39
2018-12-25T22:31:17.414Z,88.27
2018-12-25T22:36:22.346Z,88.34
2018-12-25T22:41:27.002Z,87.94
2018-12-25T22:46:50.806Z,88.99
2018-12-25T22:52:09.830Z,89.12
2018-12-25T22:57:27.309Z,89.15
2018-12-25T23:02:45.987Z,88.08
2018-12-25T23:07:50.462Z,89.14
2018-12-25T23:12:55.237Z,89.37
2018-12-25T23:17:59.628Z,88.17
2018-12-25T23:23:23.846Z,88.21
2018-12-25T23:28:47.709Z,87.85
2018-12-25T23:33:52.231Z,89.68
2018-12-25T23:38:56.955Z,88.95
2018-12-25T23:44:01.401Z,89.37
2018-12-25T23:49:25.988Z,89.54
2018-12-25T23:54:43.027Z,89.54
2018-12-25T23:59:49.560Z,89.42
